BTY25KF VIDP-VNKT
Flight info
| Callsign | BTY25KF |
|---|---|
| Flight time | 1h 14m |
| Altitude | 39000 |
| Route | ITBAN7D ITBAN DCT ALI G452 LKN G598 SMR SMR |
| Aircraft | B738/M-SDE2E3FGHIRWXY/LB1 |
Departure
| Time | 2025-12-30 08:26 |
|---|---|
| Airport | Indira Gandhi International Airport (VIDP) |
Arrival
| Time | 2025-12-30 09:41 |
|---|---|
| Airport | Tribhuvan International Airport (VNKT) |
| Time | Latitude | Longitude | Altitude | Speed | Heading |
|---|---|---|---|---|---|
| 2025-12-30 07:44 | 28.56461 | 77.11010 | 768 ft | 0 kts | 96° |
| 2025-12-30 08:19 | 28.56463 | 77.10992 | 768 ft | 3 kts | 108° |
| 2025-12-30 08:19 | 28.56486 | 77.10960 | 768 ft | 3 kts | 171° |
| 2025-12-30 08:20 | 28.56503 | 77.10961 | 768 ft | 1 kts | 195° |
| 2025-12-30 08:20 | 28.56507 | 77.10962 | 768 ft | 0 kts | 196° |
| 2025-12-30 08:21 | 28.56478 | 77.10953 | 767 ft | 6 kts | 194° |
| 2025-12-30 08:22 | 28.56365 | 77.10921 | 766 ft | 9 kts | 194° |
| 2025-12-30 08:22 | 28.56307 | 77.10995 | 767 ft | 7 kts | 106° |
| 2025-12-30 08:23 | 28.56295 | 77.11049 | 768 ft | 7 kts | 104° |
| 2025-12-30 08:23 | 28.56259 | 77.11210 | 770 ft | 14 kts | 103° |
| 2025-12-30 08:24 | 28.56208 | 77.11428 | 773 ft | 14 kts | 105° |
| 2025-12-30 08:24 | 28.56088 | 77.11551 | 774 ft | 13 kts | 186° |
| 2025-12-30 08:25 | 28.56034 | 77.11477 | 772 ft | 0 kts | 283° |
| 2025-12-30 08:25 | 28.56181 | 77.10834 | 765 ft | 116 kts | 284° |
| 2025-12-30 08:26 | 28.56728 | 77.08474 | 1909 ft | 162 kts | 285° |
| 2025-12-30 08:26 | 28.56991 | 77.07246 | 2926 ft | 158 kts | 284° |
| 2025-12-30 08:27 | 28.57647 | 77.04403 | 3775 ft | 214 kts | 285° |
| 2025-12-30 08:27 | 28.58511 | 77.00740 | 4550 ft | 260 kts | 285° |
| 2025-12-30 08:28 | 28.59428 | 76.96726 | 6333 ft | 270 kts | 283° |
| 2025-12-30 08:28 | 28.60379 | 76.92527 | 8145 ft | 276 kts | 283° |
| 2025-12-30 08:29 | 28.61092 | 76.88227 | 8953 ft | 279 kts | 262° |
| 2025-12-30 08:29 | 28.57206 | 76.83906 | 8992 ft | 286 kts | 189° |
| 2025-12-30 08:30 | 28.53198 | 76.83797 | 8994 ft | 289 kts | 181° |
| 2025-12-30 08:30 | 28.51201 | 76.83818 | 8983 ft | 285 kts | 181° |
| 2025-12-30 08:31 | 28.47263 | 76.83836 | 8989 ft | 284 kts | 182° |
| 2025-12-30 08:31 | 28.43302 | 76.83826 | 8995 ft | 285 kts | 182° |
| 2025-12-30 08:32 | 28.39325 | 76.83807 | 8990 ft | 286 kts | 182° |
| 2025-12-30 08:32 | 28.35299 | 76.84075 | 9940 ft | 291 kts | 177° |
| 2025-12-30 08:32 | 28.33293 | 76.84267 | 10681 ft | 300 kts | 178° |
| 2025-12-30 08:33 | 28.25744 | 76.88909 | 13253 ft | 356 kts | 116° |
| 2025-12-30 08:34 | 28.24792 | 76.91528 | 13997 ft | 362 kts | 114° |
| 2025-12-30 08:34 | 28.22941 | 76.96915 | 15437 ft | 371 kts | 113° |
| 2025-12-30 08:35 | 28.21010 | 77.02414 | 16873 ft | 380 kts | 114° |
| 2025-12-30 08:35 | 28.18997 | 77.08032 | 18283 ft | 389 kts | 114° |
| 2025-12-30 08:36 | 28.16924 | 77.13782 | 19468 ft | 399 kts | 114° |
| 2025-12-30 08:36 | 28.14491 | 77.19500 | 20627 ft | 407 kts | 120° |
| 2025-12-30 08:37 | 28.11757 | 77.25201 | 21787 ft | 416 kts | 121° |
| 2025-12-30 08:37 | 28.07612 | 77.34021 | 23479 ft | 430 kts | 120° |
| 2025-12-30 08:38 | 28.06211 | 77.37039 | 23847 ft | 437 kts | 120° |
| 2025-12-30 08:38 | 28.03335 | 77.43218 | 24579 ft | 450 kts | 120° |
| 2025-12-30 08:39 | 28.00380 | 77.49551 | 25327 ft | 461 kts | 120° |
| 2025-12-30 08:41 | 27.83644 | 77.72266 | 28077 ft | 505 kts | 112° |
| 2025-12-30 08:43 | 27.82922 | 78.04668 | 30599 ft | 535 kts | 87° |
| 2025-12-30 08:45 | 27.75421 | 78.37879 | 32385 ft | 567 kts | 115° |
| 2025-12-30 08:47 | 27.62885 | 78.71038 | 34530 ft | 578 kts | 114° |
| 2025-12-30 08:48 | 27.51908 | 78.99936 | 36635 ft | 571 kts | 114° |
| 2025-12-30 08:51 | 27.37897 | 79.36525 | 38967 ft | 564 kts | 113° |
| 2025-12-30 08:52 | 27.26773 | 79.64759 | 39002 ft | 558 kts | 115° |
| 2025-12-30 08:55 | 27.12438 | 80.00235 | 39015 ft | 559 kts | 115° |
| 2025-12-30 08:56 | 27.01637 | 80.26793 | 39008 ft | 563 kts | 115° |
| 2025-12-30 08:59 | 26.86939 | 80.62660 | 38999 ft | 564 kts | 114° |
| 2025-12-30 09:01 | 26.76516 | 80.95027 | 39005 ft | 542 kts | 83° |
| 2025-12-30 09:03 | 26.80599 | 81.32030 | 39011 ft | 537 kts | 75° |
| 2025-12-30 09:05 | 26.83734 | 81.61250 | 38994 ft | 543 kts | 75° |
| 2025-12-30 09:07 | 26.87270 | 81.94832 | 38992 ft | 543 kts | 75° |
| 2025-12-30 09:08 | 26.90279 | 82.24043 | 38993 ft | 540 kts | 75° |
| 2025-12-30 09:11 | 26.94060 | 82.61596 | 39004 ft | 539 kts | 75° |
| 2025-12-30 09:13 | 26.97337 | 82.95008 | 39008 ft | 540 kts | 75° |
| 2025-12-30 09:15 | 27.00720 | 83.28512 | 37914 ft | 543 kts | 75° |
| 2025-12-30 09:17 | 27.04050 | 83.61999 | 33622 ft | 549 kts | 76° |
| 2025-12-30 09:19 | 27.07231 | 83.94957 | 29891 ft | 512 kts | 79° |
| 2025-12-30 09:20 | 27.09749 | 84.21515 | 26682 ft | 472 kts | 80° |
| 2025-12-30 09:22 | 27.11413 | 84.39356 | 24551 ft | 449 kts | 81° |
| 2025-12-30 09:22 | 27.12046 | 84.46229 | 23712 ft | 435 kts | 81° |
| 2025-12-30 09:23 | 27.12651 | 84.52834 | 22802 ft | 416 kts | 81° |
| 2025-12-30 09:23 | 27.13229 | 84.59142 | 22038 ft | 400 kts | 81° |
| 2025-12-30 09:24 | 27.13792 | 84.65307 | 21259 ft | 394 kts | 81° |
| 2025-12-30 09:24 | 27.14060 | 84.68355 | 20989 ft | 389 kts | 81° |
| 2025-12-30 09:24 | 27.14536 | 84.74357 | 20289 ft | 384 kts | 82° |
| 2025-12-30 09:25 | 27.15228 | 84.83221 | 19124 ft | 380 kts | 82° |
| 2025-12-30 09:26 | 27.15692 | 84.89130 | 18313 ft | 379 kts | 82° |
| 2025-12-30 09:26 | 27.16152 | 84.95009 | 17464 ft | 376 kts | 82° |
| 2025-12-30 09:27 | 27.16604 | 85.00752 | 16687 ft | 372 kts | 82° |
| 2025-12-30 09:27 | 27.17189 | 85.06486 | 15894 ft | 366 kts | 72° |
| 2025-12-30 09:28 | 27.19422 | 85.11456 | 15088 ft | 352 kts | 45° |
| 2025-12-30 09:28 | 27.21141 | 85.13362 | 14700 ft | 344 kts | 33° |
| 2025-12-30 09:28 | 27.25238 | 85.15864 | 14011 ft | 329 kts | 15° |
| 2025-12-30 09:29 | 27.31370 | 85.18570 | 13430 ft | 307 kts | 16° |
| 2025-12-30 09:30 | 27.35336 | 85.20223 | 12794 ft | 300 kts | 9° |
| 2025-12-30 09:30 | 27.39219 | 85.21844 | 12102 ft | 302 kts | 18° |
| 2025-12-30 09:31 | 27.43190 | 85.21949 | 11635 ft | 287 kts | 352° |
| 2025-12-30 09:31 | 27.47087 | 85.21132 | 10964 ft | 284 kts | 348° |
| 2025-12-30 09:32 | 27.50889 | 85.22074 | 10439 ft | 284 kts | 21° |
| 2025-12-30 09:32 | 27.52711 | 85.22853 | 10278 ft | 276 kts | 17° |
| 2025-12-30 09:32 | 27.55953 | 85.24893 | 10026 ft | 265 kts | 41° |
| 2025-12-30 09:33 | 27.59277 | 85.29544 | 9692 ft | 246 kts | 61° |
| 2025-12-30 09:34 | 27.60473 | 85.32946 | 9475 ft | 225 kts | 68° |
| 2025-12-30 09:34 | 27.61548 | 85.36233 | 9146 ft | 225 kts | 68° |
| 2025-12-30 09:35 | 27.62793 | 85.39501 | 8706 ft | 223 kts | 55° |
| 2025-12-30 09:35 | 27.64748 | 85.42063 | 8304 ft | 207 kts | 44° |
| 2025-12-30 09:35 | 27.65716 | 85.43233 | 8091 ft | 202 kts | 46° |
| 2025-12-30 09:36 | 27.67568 | 85.45473 | 7692 ft | 190 kts | 46° |
| 2025-12-30 09:36 | 27.69632 | 85.47059 | 7445 ft | 174 kts | 15° |
| 2025-12-30 09:37 | 27.72957 | 85.46611 | 7101 ft | 163 kts | 326° |
| 2025-12-30 09:38 | 27.74681 | 85.43564 | 6057 ft | 152 kts | 278° |
| 2025-12-30 09:38 | 27.74740 | 85.42385 | 5819 ft | 150 kts | 269° |
| 2025-12-30 09:39 | 27.74343 | 85.40095 | 5418 ft | 154 kts | 247° |
| 2025-12-30 09:39 | 27.73050 | 85.38215 | 4823 ft | 148 kts | 221° |
| 2025-12-30 09:40 | 27.71454 | 85.36862 | 4620 ft | 143 kts | 214° |
| 2025-12-30 09:40 | 27.69804 | 85.35978 | 4395 ft | 109 kts | 202° |
| 2025-12-30 09:41 | 27.68967 | 85.35597 | 4390 ft | 27 kts | 201° |
| 2025-12-30 09:41 | 27.68750 | 85.35496 | 4389 ft | 5 kts | 22° |
| 2025-12-30 09:42 | 27.68810 | 85.35524 | 4390 ft | 6 kts | 23° |
| 2025-12-30 09:42 | 27.68917 | 85.35577 | 4391 ft | 11 kts | 23° |
| 2025-12-30 09:43 | 27.69080 | 85.35571 | 4388 ft | 14 kts | 312° |
| 2025-12-30 09:43 | 27.69170 | 85.35573 | 4387 ft | 14 kts | 21° |
| 2025-12-30 09:44 | 27.69339 | 85.35649 | 4393 ft | 13 kts | 21° |
| 2025-12-30 09:44 | 27.69420 | 85.35684 | 4394 ft | 12 kts | 21° |
| 2025-12-30 09:45 | 27.69649 | 85.35790 | 4397 ft | 11 kts | 20° |
| 2025-12-30 09:45 | 27.69785 | 85.35834 | 4396 ft | 5 kts | 319° |
| 2025-12-30 09:46 | 27.69812 | 85.35773 | 4397 ft | 2 kts | 291° |
| 2025-12-30 09:46 | 27.69815 | 85.35764 | 4397 ft | 0 kts | 291° |